Time,TemperatureF,DewpointF,PressureIn,WindDirection,WindDirectionDegrees,WindSpeedMPH,WindSpeedGustMPH,Humidity,HourlyPrecipIn,Conditions,Clouds,dailyrainin,SoftwareType,DateUTC
2013-08-06 00:01:00,56.1,46.4,30.02,East,90,0.0,0.0,70,0.00,,,0.00,meteobridge,2013-08-06 04:01:00,
2013-08-06 00:02:00,56.1,46.4,30.02,East,90,0.0,0.0,70,0.00,,,0.00,meteobridge,2013-08-06 04:02:00,
2013-08-06 00:04:00,56.1,46.4,30.02,East,90,0.0,0.0,70,0.00,,,0.00,meteobridge,2013-08-06 04:04:00,
2013-08-06 00:07:00,55.9,46.8,30.02,North,0,1.6,2.2,71,0.00,,,0.00,meteobridge,2013-08-06 04:07:00,
2013-08-06 00:12:00,56.1,46.8,30.02,North,0,2.2,3.1,71,0.00,,,0.00,meteobridge,2013-08-06 04:12:00,
2013-08-06 00:17:00,55.9,46.8,30.02,NW,315,3.1,3.1,71,0.00,,,0.00,meteobridge,2013-08-06 04:17:00,
2013-08-06 00:23:00,55.6,46.4,30.02,North,0,0.0,0.7,71,0.00,,,0.00,meteobridge,2013-08-06 04:23:00,
2013-08-06 00:28:00,55.4,46.2,30.02,East,90,0.7,1.6,71,0.00,,,0.00,meteobridge,2013-08-06 04:28:00,
2013-08-06 00:34:00,55.2,46.4,30.03,East,90,0.0,0.0,72,0.00,,,0.00,meteobridge,2013-08-06 04:34:00,
2013-08-06 00:40:00,55.0,46.2,30.02,East,90,1.6,1.6,72,0.00,,,0.00,meteobridge,2013-08-06 04:40:00,
2013-08-06 00:45:00,55.2,46.4,30.02,NW,315,4.5,4.5,72,0.00,,,0.00,meteobridge,2013-08-06 04:45:00,
2013-08-06 00:51:00,55.0,46.6,30.02,North,0,3.1,3.8,73,0.00,,,0.00,meteobridge,2013-08-06 04:51:00,
2013-08-06 00:57:00,55.0,46.6,30.02,North,0,0.0,0.0,73,0.00,,,0.00,meteobridge,2013-08-06 04:57:00,
2013-08-06 01:02:00,54.9,46.0,30.02,South,180,2.2,2.2,72,0.00,,,0.00,meteobridge,2013-08-06 05:02:00,
2013-08-06 01:08:00,54.7,45.9,30.01,North,0,0.0,3.1,72,0.00,,,0.00,meteobridge,2013-08-06 05:08:00,
2013-08-06 01:14:00,54.3,45.5,30.02,East,90,2.2,2.2,72,0.00,,,0.00,meteobridge,2013-08-06 05:14:00,
2013-08-06 01:19:00,54.3,45.9,30.02,East,90,0.7,1.6,73,0.00,,,0.00,meteobridge,2013-08-06 05:19:00,
2013-08-06 01:25:00,54.1,45.7,30.02,East,90,0.7,2.2,73,0.00,,,0.00,meteobridge,2013-08-06 05:25:00,
2013-08-06 01:30:00,54.0,45.5,30.02,North,0,0.7,0.7,73,0.00,,,0.00,meteobridge,2013-08-06 05:30:00,
2013-08-06 01:36:00,54.1,45.7,30.02,East,90,0.0,1.6,73,0.00,,,0.00,meteobridge,2013-08-06 05:36:00,
2013-08-06 01:42:00,54.0,45.5,30.02,West,270,1.6,2.2,73,0.00,,,0.00,meteobridge,2013-08-06 05:42:00,
2013-08-06 01:47:00,53.8,45.7,30.03,North,0,0.7,1.6,74,0.00,,,0.00,meteobridge,2013-08-06 05:47:00,
2013-08-06 01:53:00,53.8,45.7,30.02,NW,315,1.6,1.6,74,0.00,,,0.00,meteobridge,2013-08-06 05:53:00,
2013-08-06 01:59:00,53.6,45.1,30.02,North,0,0.7,3.1,73,0.00,,,0.00,meteobridge,2013-08-06 05:59:00,
2013-08-06 02:04:00,53.8,45.7,30.03,East,90,0.0,3.8,74,0.00,,,0.00,meteobridge,2013-08-06 06:04:00,
2013-08-06 02:10:00,53.4,45.3,30.03,East,90,0.0,0.0,74,0.00,,,0.00,meteobridge,2013-08-06 06:10:00,
2013-08-06 02:16:00,53.6,45.5,30.02,North,0,2.2,3.8,74,0.00,,,0.00,meteobridge,2013-08-06 06:16:00,
2013-08-06 02:21:00,53.2,45.5,30.02,East,90,0.0,1.6,75,0.00,,,0.00,meteobridge,2013-08-06 06:21:00,
2013-08-06 02:27:00,52.9,45.1,30.02,North,0,0.0,0.0,75,0.00,,,0.00,meteobridge,2013-08-06 06:27:00,
2013-08-06 02:32:00,52.7,45.0,30.02,North,0,1.6,1.6,75,0.00,,,0.00,meteobridge,2013-08-06 06:32:00,
2013-08-06 02:38:00,52.7,45.0,30.02,West,270,1.6,1.6,75,0.00,,,0.00,meteobridge,2013-08-06 06:38:00,
2013-08-06 02:44:00,52.7,45.0,30.02,North,0,1.6,2.2,75,0.00,,,0.00,meteobridge,2013-08-06 06:44:00,
2013-08-06 02:49:00,52.5,44.8,30.02,North,0,0.0,0.0,75,0.00,,,0.00,meteobridge,2013-08-06 06:49:00,
2013-08-06 02:55:00,52.5,44.8,30.03,North,0,0.0,1.6,75,0.00,,,0.00,meteobridge,2013-08-06 06:55:00,
2013-08-06 03:01:00,52.3,44.6,30.03,North,0,0.0,0.0,75,0.00,,,0.00,meteobridge,2013-08-06 07:01:00,
2013-08-06 03:06:00,51.8,44.1,30.03,North,0,0.0,0.0,75,0.00,,,0.00,meteobridge,2013-08-06 07:06:00,
2013-08-06 03:12:00,52.2,44.4,30.03,North,0,0.0,0.0,75,0.00,,,0.00,meteobridge,2013-08-06 07:12:00,
2013-08-06 03:18:00,51.6,44.2,30.03,North,0,0.0,0.0,76,0.00,,,0.00,meteobridge,2013-08-06 07:18:00,
2013-08-06 03:23:00,51.6,44.6,30.03,North,0,0.0,0.0,77,0.00,,,0.00,meteobridge,2013-08-06 07:23:00,
2013-08-06 03:29:00,51.4,44.4,30.03,North,0,0.0,0.0,77,0.00,,,0.00,meteobridge,2013-08-06 07:29:00,
2013-08-06 03:35:00,51.6,44.6,30.03,North,0,0.0,0.0,77,0.00,,,0.00,meteobridge,2013-08-06 07:35:00,
2013-08-06 03:40:00,51.6,44.6,30.03,West,270,0.0,0.0,77,0.00,,,0.00,meteobridge,2013-08-06 07:40:00,
2013-08-06 03:46:00,51.4,44.4,30.03,North,0,0.0,0.0,77,0.00,,,0.00,meteobridge,2013-08-06 07:46:00,
2013-08-06 03:51:00,51.3,44.2,30.03,East,90,0.0,0.0,77,0.00,,,0.00,meteobridge,2013-08-06 07:51:00,
2013-08-06 03:57:00,51.6,45.0,30.04,South,180,0.0,0.0,78,0.00,,,0.00,meteobridge,2013-08-06 07:57:00,
2013-08-06 04:03:00,51.4,44.8,30.03,South,180,0.0,0.0,78,0.00,,,0.00,meteobridge,2013-08-06 08:03:00,
2013-08-06 04:08:00,51.4,44.8,30.03,North,0,0.0,0.0,78,0.00,,,0.00,meteobridge,2013-08-06 08:08:00,
2013-08-06 04:14:00,51.6,45.0,30.03,South,180,0.0,0.0,78,0.00,,,0.00,meteobridge,2013-08-06 08:14:00,
2013-08-06 04:20:00,52.0,45.0,30.03,South,180,0.0,0.0,77,0.00,,,0.00,meteobridge,2013-08-06 08:20:00,
2013-08-06 04:25:00,50.5,43.9,30.04,South,180,0.0,0.0,78,0.00,,,0.00,meteobridge,2013-08-06 08:25:00,
2013-08-06 04:31:00,51.1,44.4,30.03,East,90,0.0,0.0,78,0.00,,,0.00,meteobridge,2013-08-06 08:31:00,
2013-08-06 04:37:00,51.1,44.4,30.03,East,90,0.0,0.0,78,0.00,,,0.00,meteobridge,2013-08-06 08:37:00,
2013-08-06 04:42:00,50.9,44.2,30.03,West,270,0.0,0.0,78,0.00,,,0.00,meteobridge,2013-08-06 08:42:00,
2013-08-06 04:48:00,50.4,43.7,30.04,West,270,0.0,0.0,78,0.00,,,0.00,meteobridge,2013-08-06 08:48:00,
2013-08-06 04:53:00,50.0,43.3,30.04,West,270,0.0,0.0,78,0.00,,,0.00,meteobridge,2013-08-06 08:53:00,
2013-08-06 04:59:00,50.5,43.9,30.04,West,270,0.0,0.0,78,0.00,,,0.00,meteobridge,2013-08-06 08:59:00,
2013-08-06 05:05:00,50.5,43.9,30.04,East,90,0.0,0.0,78,0.00,,,0.00,meteobridge,2013-08-06 09:05:00,
2013-08-06 05:10:00,50.4,44.1,30.04,East,90,0.0,0.0,79,0.00,,,0.00,meteobridge,2013-08-06 09:10:00,
2013-08-06 05:16:00,50.5,44.2,30.04,East,90,0.0,0.0,79,0.00,,,0.00,meteobridge,2013-08-06 09:16:00,
2013-08-06 05:22:00,50.4,44.1,30.04,East,90,0.0,0.0,79,0.00,,,0.00,meteobridge,2013-08-06 09:22:00,
2013-08-06 05:27:00,50.4,44.1,30.05,North,0,0.0,0.0,79,0.00,,,0.00,meteobridge,2013-08-06 09:27:00,
2013-08-06 05:33:00,49.8,43.9,30.05,North,0,0.0,0.0,80,0.00,,,0.00,meteobridge,2013-08-06 09:33:00,
2013-08-06 05:39:00,50.2,43.9,30.05,North,0,0.0,0.0,79,0.00,,,0.00,meteobridge,2013-08-06 09:39:00,
2013-08-06 05:44:00,50.0,43.7,30.05,North,0,0.0,0.0,79,0.00,,,0.00,meteobridge,2013-08-06 09:44:00,
2013-08-06 05:50:00,50.2,43.9,30.05,North,0,2.2,2.2,79,0.00,,,0.00,meteobridge,2013-08-06 09:50:00,
2013-08-06 05:55:00,50.2,43.9,30.05,NW,315,3.8,3.8,79,0.00,,,0.00,meteobridge,2013-08-06 09:55:00,
2013-08-06 06:01:00,50.2,43.9,30.05,North,0,1.6,1.6,79,0.00,,,0.00,meteobridge,2013-08-06 10:01:00,
2013-08-06 06:07:00,50.0,43.7,30.06,North,0,2.2,2.2,79,0.00,,,0.00,meteobridge,2013-08-06 10:07:00,
2013-08-06 06:12:00,50.2,43.9,30.06,West,270,2.2,3.8,79,0.00,,,0.00,meteobridge,2013-08-06 10:12:00,
2013-08-06 06:18:00,50.2,43.9,30.06,NW,315,3.1,3.1,79,0.00,,,0.00,meteobridge,2013-08-06 10:18:00,
2013-08-06 06:24:00,50.4,44.1,30.06,North,0,1.6,3.8,79,0.00,,,0.00,meteobridge,2013-08-06 10:24:00,
2013-08-06 06:29:00,50.2,43.5,30.06,North,0,2.2,2.2,78,0.00,,,0.00,meteobridge,2013-08-06 10:29:00,
2013-08-06 06:35:00,50.2,43.5,30.06,North,0,2.2,2.2,78,0.00,,,0.00,meteobridge,2013-08-06 10:35:00,
2013-08-06 06:41:00,50.5,43.9,30.06,West,270,0.0,1.6,78,0.00,,,0.00,meteobridge,2013-08-06 10:41:00,
2013-08-06 06:46:00,50.7,44.1,30.06,NW,315,3.1,3.1,78,0.00,,,0.00,meteobridge,2013-08-06 10:46:00,
2013-08-06 06:52:00,50.9,44.2,30.06,East,90,0.0,1.6,78,0.00,,,0.00,meteobridge,2013-08-06 10:52:00,
2013-08-06 06:58:00,51.1,44.4,30.06,SW,225,1.6,1.6,78,0.00,,,0.00,meteobridge,2013-08-06 10:58:00,
2013-08-06 07:03:00,51.1,44.1,30.06,North,0,2.2,2.2,77,0.00,,,0.00,meteobridge,2013-08-06 11:03:00,
2013-08-06 07:09:00,51.6,44.6,30.07,West,270,2.2,3.1,77,0.00,,,0.00,meteobridge,2013-08-06 11:09:00,
2013-08-06 07:14:00,52.2,44.4,30.07,South,180,3.1,3.8,75,0.00,,,0.00,meteobridge,2013-08-06 11:14:00,
2013-08-06 07:20:00,52.3,44.2,30.07,NE,45,1.6,1.6,74,0.00,,,0.00,meteobridge,2013-08-06 11:20:00,
2013-08-06 07:26:00,52.7,44.6,30.07,North,0,1.6,1.6,74,0.00,,,0.00,meteobridge,2013-08-06 11:26:00,
2013-08-06 07:31:00,53.2,44.8,30.07,North,0,1.6,2.2,73,0.00,,,0.00,meteobridge,2013-08-06 11:31:00,
2013-08-06 07:37:00,53.6,44.8,30.07,NW,315,2.2,2.2,72,0.00,,,0.00,meteobridge,2013-08-06 11:37:00,
2013-08-06 07:43:00,54.1,45.0,30.07,North,0,1.6,2.2,71,0.00,,,0.00,meteobridge,2013-08-06 11:43:00,
2013-08-06 07:48:00,54.9,45.7,30.07,North,0,3.1,3.1,71,0.00,,,0.00,meteobridge,2013-08-06 11:48:00,
2013-08-06 07:54:00,55.4,45.0,30.07,NW,315,3.1,3.8,68,0.00,,,0.00,meteobridge,2013-08-06 11:54:00,
2013-08-06 08:00:00,55.9,45.5,30.07,North,0,2.2,3.1,68,0.00,,,0.00,meteobridge,2013-08-06 12:00:00,
2013-08-06 08:05:00,57.0,46.2,30.07,North,0,3.1,3.1,67,0.00,,,0.00,meteobridge,2013-08-06 12:05:00,
2013-08-06 08:11:00,57.2,45.5,30.07,NW,315,3.1,3.1,65,0.00,,,0.00,meteobridge,2013-08-06 12:11:00,
2013-08-06 08:16:00,57.6,45.9,30.07,North,0,3.8,3.8,65,0.00,,,0.00,meteobridge,2013-08-06 12:16:00,
2013-08-06 08:22:00,58.5,46.8,30.06,North,0,1.6,2.2,65,0.00,,,0.00,meteobridge,2013-08-06 12:22:00,
2013-08-06 08:28:00,59.2,46.9,30.07,North,0,3.1,3.1,64,0.00,,,0.00,meteobridge,2013-08-06 12:28:00,
2013-08-06 08:33:00,59.9,47.3,30.06,North,0,2.2,2.2,63,0.00,,,0.00,meteobridge,2013-08-06 12:33:00,
2013-08-06 08:39:00,60.6,48.0,30.06,North,0,2.2,2.2,63,0.00,,,0.00,meteobridge,2013-08-06 12:39:00,
2013-08-06 08:45:00,61.2,48.0,30.06,North,0,1.6,3.1,62,0.00,,,0.00,meteobridge,2013-08-06 12:45:00,
2013-08-06 08:50:00,61.7,48.2,30.07,North,0,1.6,3.1,61,0.00,,,0.00,meteobridge,2013-08-06 12:50:00,
2013-08-06 08:56:00,62.6,48.6,30.06,East,90,1.6,2.2,60,0.00,,,0.00,meteobridge,2013-08-06 12:56:00,
2013-08-06 09:02:00,63.1,49.1,30.07,East,90,0.7,0.7,60,0.00,,,0.00,meteobridge,2013-08-06 13:02:00,
2013-08-06 09:07:00,63.5,48.9,30.06,North,0,2.2,2.2,59,0.00,,,0.00,meteobridge,2013-08-06 13:07:00,
2013-08-06 09:13:00,64.0,49.5,30.07,South,180,0.0,0.0,59,0.00,,,0.00,meteobridge,2013-08-06 13:13:00,
2013-08-06 09:18:00,64.8,49.6,30.07,North,0,0.0,1.6,58,0.00,,,0.00,meteobridge,2013-08-06 13:18:00,
2013-08-06 09:24:00,65.1,50.0,30.07,South,180,0.0,0.7,58,0.00,,,0.00,meteobridge,2013-08-06 13:24:00,
2013-08-06 09:30:00,65.8,50.7,30.06,North,0,1.6,1.6,58,0.00,,,0.00,meteobridge,2013-08-06 13:30:00,
2013-08-06 09:35:00,67.1,51.4,30.06,NE,45,0.7,0.7,57,0.00,,,0.00,meteobridge,2013-08-06 13:35:00,
2013-08-06 09:41:00,67.3,51.1,30.06,North,0,0.0,0.0,56,0.00,,,0.00,meteobridge,2013-08-06 13:41:00,
2013-08-06 09:47:00,67.8,51.6,30.06,South,180,0.0,0.0,56,0.00,,,0.00,meteobridge,2013-08-06 13:47:00,
2013-08-06 09:52:00,68.4,51.6,30.07,West,270,2.2,2.2,55,0.00,,,0.00,meteobridge,2013-08-06 13:52:00,
2013-08-06 09:58:00,68.5,51.8,30.06,South,180,4.5,4.5,55,0.00,,,0.00,meteobridge,2013-08-06 13:58:00,
2013-08-06 10:04:00,69.6,52.7,30.06,South,180,0.0,0.7,55,0.00,,,0.00,meteobridge,2013-08-06 14:04:00,
2013-08-06 10:09:00,71.2,53.2,30.07,SW,225,0.7,2.2,53,0.00,,,0.00,meteobridge,2013-08-06 14:09:00,
2013-08-06 10:15:00,72.5,54.0,30.07,SW,225,0.0,0.7,52,0.00,,,0.00,meteobridge,2013-08-06 14:15:00,
2013-08-06 10:21:00,71.4,52.3,30.06,North,0,3.8,3.8,51,0.00,,,0.00,meteobridge,2013-08-06 14:21:00,
2013-08-06 10:26:00,72.9,54.1,30.06,NW,315,0.0,1.6,52,0.00,,,0.00,meteobridge,2013-08-06 14:26:00,
2013-08-06 10:32:00,74.8,54.3,30.06,South,180,0.0,1.6,49,0.00,,,0.00,meteobridge,2013-08-06 14:32:00,
2013-08-06 10:37:00,76.3,54.5,30.07,South,180,3.1,3.1,47,0.00,,,0.00,meteobridge,2013-08-06 14:37:00,
2013-08-06 10:43:00,77.2,54.9,30.07,West,270,1.6,2.2,46,0.00,,,0.00,meteobridge,2013-08-06 14:43:00,
2013-08-06 10:49:00,75.6,54.5,30.07,SE,135,3.1,3.1,48,0.00,,,0.00,meteobridge,2013-08-06 14:49:00,
2013-08-06 10:54:00,75.0,53.4,30.07,South,180,1.6,6.0,47,0.00,,,0.00,meteobridge,2013-08-06 14:54:00,
2013-08-06 11:00:00,76.8,54.5,30.06,East,90,1.6,5.4,46,0.00,,,0.00,meteobridge,2013-08-06 15:00:00,
2013-08-06 11:06:00,77.4,55.0,30.06,NW,315,0.7,3.1,46,0.00,,,0.00,meteobridge,2013-08-06 15:06:00,
2013-08-06 11:11:00,77.0,53.4,30.06,West,270,2.2,2.2,44,0.00,,,0.00,meteobridge,2013-08-06 15:11:00,
2013-08-06 11:17:00,77.2,53.6,30.06,West,270,0.0,9.2,44,0.00,,,0.00,meteobridge,2013-08-06 15:17:00,
2013-08-06 11:23:00,77.2,53.6,30.07,South,180,6.0,6.9,44,0.00,,,0.00,meteobridge,2013-08-06 15:23:00,
2013-08-06 11:28:00,76.6,53.8,30.07,SW,225,6.0,9.2,45,0.00,,,0.00,meteobridge,2013-08-06 15:28:00,
2013-08-06 11:34:00,77.4,53.8,30.07,SE,135,9.8,9.8,44,0.00,,,0.00,meteobridge,2013-08-06 15:34:00,
2013-08-06 11:39:00,78.4,55.4,30.07,South,180,3.1,3.1,45,0.00,,,0.00,meteobridge,2013-08-06 15:39:00,
2013-08-06 11:45:00,77.0,53.4,30.07,North,0,3.8,6.0,44,0.00,,,0.00,meteobridge,2013-08-06 15:45:00,
2013-08-06 11:51:00,80.6,56.1,30.07,East,90,0.7,3.1,43,0.00,,,0.00,meteobridge,2013-08-06 15:51:00,
2013-08-06 11:56:00,77.9,53.6,30.07,NE,45,3.1,7.6,43,0.00,,,0.00,meteobridge,2013-08-06 15:56:00,
2013-08-06 12:02:00,83.3,59.2,30.07,North,0,0.7,0.7,44,0.00,,,0.00,meteobridge,2013-08-06 16:02:00,
2013-08-06 12:08:00,81.7,57.0,30.07,East,90,6.9,6.9,43,0.00,,,0.00,meteobridge,2013-08-06 16:08:00,
2013-08-06 12:13:00,81.1,54.5,30.07,SE,135,4.5,4.5,40,0.00,,,0.00,meteobridge,2013-08-06 16:13:00,
2013-08-06 12:19:00,78.8,53.8,30.07,SE,135,5.4,8.3,42,0.00,,,0.00,meteobridge,2013-08-06 16:19:00,
2013-08-06 12:25:00,81.3,56.7,30.07,South,180,3.8,3.8,43,0.00,,,0.00,meteobridge,2013-08-06 16:25:00,
2013-08-06 12:30:00,82.6,56.5,30.07,East,90,1.6,3.8,41,0.00,,,0.00,meteobridge,2013-08-06 16:30:00,
2013-08-06 12:36:00,79.2,54.1,30.07,South,180,2.2,4.5,42,0.00,,,0.00,meteobridge,2013-08-06 16:36:00,
2013-08-06 12:41:00,78.8,53.8,30.07,South,180,3.8,12.1,42,0.00,,,0.00,meteobridge,2013-08-06 16:41:00,
2013-08-06 12:47:00,78.8,53.8,30.07,East,90,1.6,4.5,42,0.00,,,0.00,meteobridge,2013-08-06 16:47:00,
2013-08-06 12:53:00,77.9,53.6,30.07,SW,225,5.4,6.0,43,0.00,,,0.00,meteobridge,2013-08-06 16:53:00,
2013-08-06 12:58:00,80.4,54.5,30.07,South,180,9.8,11.4,41,0.00,,,0.00,meteobridge,2013-08-06 16:58:00,
2013-08-06 13:04:00,79.9,54.1,30.07,SE,135,8.3,8.3,41,0.00,,,0.00,meteobridge,2013-08-06 17:04:00,
2013-08-06 13:10:00,81.7,53.6,30.07,SE,135,2.2,2.2,38,0.00,,,0.00,meteobridge,2013-08-06 17:10:00,
2013-08-06 13:15:00,82.0,54.7,30.07,West,270,0.0,0.7,39,0.00,,,0.00,meteobridge,2013-08-06 17:15:00,
2013-08-06 13:21:00,77.7,51.4,30.08,West,270,0.0,3.8,40,0.00,,,0.00,meteobridge,2013-08-06 17:21:00,
2013-08-06 13:27:00,79.9,53.4,30.07,SE,135,6.9,6.9,40,0.00,,,0.00,meteobridge,2013-08-06 17:27:00,
2013-08-06 13:28:00,80.8,52.9,30.08,SW,225,4.5,6.9,38,0.00,,,0.00,meteobridge,2013-08-06 17:28:00,
2013-08-06 13:34:00,79.7,51.1,30.07,South,180,1.6,8.3,37,0.00,,,0.00,meteobridge,2013-08-06 17:34:00,
2013-08-06 13:39:00,83.5,55.9,30.06,South,180,6.9,6.9,39,0.00,,,0.00,meteobridge,2013-08-06 17:39:00,
2013-08-06 13:45:00,81.0,52.9,30.06,SE,135,3.1,8.3,38,0.00,,,0.00,meteobridge,2013-08-06 17:45:00,
2013-08-06 13:51:00,83.8,57.0,30.06,South,180,5.4,5.4,40,0.00,,,0.00,meteobridge,2013-08-06 17:51:00,
2013-08-06 13:56:00,81.0,53.6,30.06,West,270,3.8,3.8,39,0.00,,,0.00,meteobridge,2013-08-06 17:56:00,
2013-08-06 14:02:00,78.8,52.5,30.06,South,180,4.5,6.9,40,0.00,,,0.00,meteobridge,2013-08-06 18:02:00,
2013-08-06 14:07:00,80.2,54.3,30.06,SE,135,8.3,9.2,41,0.00,,,0.00,meteobridge,2013-08-06 18:07:00,
2013-08-06 14:13:00,78.8,52.5,30.06,SW,225,3.1,6.9,40,0.00,,,0.00,meteobridge,2013-08-06 18:13:00,
2013-08-06 14:19:00,77.9,53.6,30.06,South,180,4.5,5.4,43,0.00,,,0.00,meteobridge,2013-08-06 18:19:00,
2013-08-06 14:24:00,80.6,54.7,30.06,SE,135,2.2,3.8,41,0.00,,,0.00,meteobridge,2013-08-06 18:24:00,
2013-08-06 14:30:00,79.9,54.7,30.06,West,270,3.1,3.1,42,0.00,,,0.00,meteobridge,2013-08-06 18:30:00,
2013-08-06 14:36:00,77.9,53.6,30.06,SE,135,4.5,7.6,43,0.00,,,0.00,meteobridge,2013-08-06 18:36:00,
2013-08-06 14:41:00,79.5,54.5,30.06,West,270,1.6,3.8,42,0.00,,,0.00,meteobridge,2013-08-06 18:41:00,
2013-08-06 14:47:00,81.9,55.9,30.06,SE,135,6.9,6.9,41,0.00,,,0.00,meteobridge,2013-08-06 18:47:00,
2013-08-06 14:53:00,79.5,53.8,30.05,SE,135,3.1,4.5,41,0.00,,,0.00,meteobridge,2013-08-06 18:53:00,
2013-08-06 14:58:00,83.3,57.2,30.05,South,180,5.4,5.4,41,0.00,,,0.00,meteobridge,2013-08-06 18:58:00,
2013-08-06 15:04:00,79.0,53.2,30.05,SE,135,0.7,3.8,41,0.00,,,0.00,meteobridge,2013-08-06 19:04:00,
2013-08-06 15:10:00,84.4,57.4,30.06,North,0,2.2,3.1,40,0.00,,,0.00,meteobridge,2013-08-06 19:10:00,
2013-08-06 15:15:00,82.0,55.9,30.06,SW,225,3.8,4.5,41,0.00,,,0.00,meteobridge,2013-08-06 19:15:00,
2013-08-06 15:21:00,81.9,55.2,30.06,West,270,3.1,7.6,40,0.00,,,0.00,meteobridge,2013-08-06 19:21:00,
2013-08-06 15:26:00,83.5,57.9,30.06,East,90,0.7,2.2,42,0.00,,,0.00,meteobridge,2013-08-06 19:26:00,
2013-08-06 15:32:00,82.6,57.2,30.06,West,270,0.7,0.7,42,0.00,,,0.00,meteobridge,2013-08-06 19:32:00,
2013-08-06 15:38:00,80.4,55.2,30.06,East,90,0.7,3.8,42,0.00,,,0.00,meteobridge,2013-08-06 19:38:00,
2013-08-06 15:43:00,81.3,56.1,30.06,NE,45,4.5,4.5,42,0.00,,,0.00,meteobridge,2013-08-06 19:43:00,
2013-08-06 15:48:00,83.8,60.3,30.06,East,90,1.6,1.6,45,0.00,,,0.00,meteobridge,2013-08-06 19:48:00,
2013-08-06 15:54:00,85.5,60.4,30.06,SE,135,1.6,2.2,43,0.00,,,0.00,meteobridge,2013-08-06 19:54:00,
2013-08-06 16:00:00,84.4,60.1,30.06,SE,135,3.1,3.1,44,0.00,,,0.00,meteobridge,2013-08-06 20:00:00,
2013-08-06 16:05:00,85.3,59.5,30.06,North,0,0.0,3.8,42,0.00,,,0.00,meteobridge,2013-08-06 20:05:00,
2013-08-06 16:11:00,82.6,58.5,30.05,East,90,1.6,7.6,44,0.00,,,0.00,meteobridge,2013-08-06 20:11:00,
2013-08-06 16:16:00,84.2,59.4,30.06,West,270,3.8,5.4,43,0.00,,,0.00,meteobridge,2013-08-06 20:16:00,
2013-08-06 16:22:00,82.8,58.6,30.06,SW,225,2.2,3.1,44,0.00,,,0.00,meteobridge,2013-08-06 20:22:00,
2013-08-06 16:28:00,83.5,58.6,30.06,NW,315,5.4,5.4,43,0.00,,,0.00,meteobridge,2013-08-06 20:28:00,
2013-08-06 16:32:00,81.0,55.0,30.06,East,90,4.5,6.0,41,0.00,,,0.00,meteobridge,2013-08-06 20:32:00,
2013-08-06 16:38:00,80.4,55.2,30.06,NE,45,6.9,9.2,42,0.00,,,0.00,meteobridge,2013-08-06 20:38:00,
2013-08-06 16:43:00,84.0,59.2,30.06,NE,45,0.7,1.6,43,0.00,,,0.00,meteobridge,2013-08-06 20:43:00,
2013-08-06 16:49:00,80.4,55.2,30.06,SE,135,3.1,3.1,42,0.00,,,0.00,meteobridge,2013-08-06 20:49:00,
2013-08-06 16:55:00,79.7,55.2,30.06,SE,135,1.6,4.5,43,0.00,,,0.00,meteobridge,2013-08-06 20:55:00,
2013-08-06 17:00:00,75.9,53.6,30.06,South,180,4.5,9.2,46,0.00,,,0.00,meteobridge,2013-08-06 21:00:00,
2013-08-06 17:06:00,77.0,54.7,30.06,West,270,3.8,3.8,46,0.00,,,0.00,meteobridge,2013-08-06 21:06:00,
2013-08-06 17:11:00,77.4,55.0,30.06,South,180,0.7,0.7,46,0.00,,,0.00,meteobridge,2013-08-06 21:11:00,
2013-08-06 17:17:00,78.1,55.6,30.06,North,0,0.0,0.0,46,0.00,,,0.00,meteobridge,2013-08-06 21:17:00,
2013-08-06 17:23:00,77.4,55.0,30.06,NE,45,3.8,12.1,46,0.00,,,0.00,meteobridge,2013-08-06 21:23:00,
2013-08-06 17:28:00,77.5,55.0,30.06,North,0,0.7,0.7,46,0.00,,,0.00,meteobridge,2013-08-06 21:28:00,
2013-08-06 17:34:00,77.4,55.6,30.06,East,90,0.7,0.7,47,0.00,,,0.00,meteobridge,2013-08-06 21:34:00,
2013-08-06 17:40:00,76.6,55.4,30.06,West,270,0.0,0.0,48,0.00,,,0.00,meteobridge,2013-08-06 21:40:00,
2013-08-06 17:45:00,76.6,56.1,30.06,East,90,0.0,0.0,49,0.00,,,0.00,meteobridge,2013-08-06 21:45:00,
2013-08-06 17:51:00,76.3,55.8,30.06,East,90,0.0,0.0,49,0.00,,,0.00,meteobridge,2013-08-06 21:51:00,
2013-08-06 17:57:00,76.1,55.6,30.06,East,90,0.0,0.0,49,0.00,,,0.00,meteobridge,2013-08-06 21:57:00,
2013-08-06 18:02:00,76.3,56.3,30.06,West,270,0.0,0.0,50,0.00,,,0.00,meteobridge,2013-08-06 22:02:00,
2013-08-06 18:08:00,76.8,56.3,30.06,West,270,0.0,0.0,49,0.00,,,0.00,meteobridge,2013-08-06 22:08:00,
2013-08-06 18:13:00,76.6,56.1,30.06,East,90,1.6,1.6,49,0.00,,,0.00,meteobridge,2013-08-06 22:13:00,
2013-08-06 18:19:00,77.2,55.9,30.06,East,90,0.7,1.6,48,0.00,,,0.00,meteobridge,2013-08-06 22:19:00,
2013-08-06 18:25:00,78.4,56.5,30.06,West,270,0.0,1.6,47,0.00,,,0.00,meteobridge,2013-08-06 22:25:00,
2013-08-06 18:30:00,79.3,57.4,30.06,SE,135,10.7,10.7,47,0.00,,,0.00,meteobridge,2013-08-06 22:30:00,
2013-08-06 18:36:00,75.7,55.2,30.06,South,180,0.0,7.6,49,0.00,,,0.00,meteobridge,2013-08-06 22:36:00,
2013-08-06 18:42:00,74.8,55.0,30.06,SW,225,3.1,3.1,50,0.00,,,0.00,meteobridge,2013-08-06 22:42:00,
2013-08-06 18:47:00,74.7,54.9,30.06,South,180,3.8,7.6,50,0.00,,,0.00,meteobridge,2013-08-06 22:47:00,
2013-08-06 18:53:00,74.7,55.4,30.07,NW,315,2.2,3.8,51,0.00,,,0.00,meteobridge,2013-08-06 22:53:00,
2013-08-06 18:59:00,74.5,55.2,30.07,SE,135,3.8,3.8,51,0.00,,,0.00,meteobridge,2013-08-06 22:59:00,
2013-08-06 19:04:00,75.9,55.9,30.07,West,270,0.0,1.6,50,0.00,,,0.00,meteobridge,2013-08-06 23:04:00,
2013-08-06 19:10:00,76.3,56.3,30.07,East,90,0.0,4.5,50,0.00,,,0.00,meteobridge,2013-08-06 23:10:00,
2013-08-06 19:16:00,75.9,55.9,30.07,SE,135,0.7,1.6,50,0.00,,,0.00,meteobridge,2013-08-06 23:16:00,
2013-08-06 19:21:00,73.6,54.3,30.07,South,180,2.2,3.8,51,0.00,,,0.00,meteobridge,2013-08-06 23:21:00,
2013-08-06 19:27:00,73.0,54.3,30.07,South,180,2.2,2.2,52,0.00,,,0.00,meteobridge,2013-08-06 23:27:00,
2013-08-06 19:32:00,72.7,54.0,30.07,East,90,2.2,3.8,52,0.00,,,0.00,meteobridge,2013-08-06 23:32:00,
2013-08-06 19:38:00,72.1,53.6,30.08,South,180,2.2,5.4,52,0.00,,,0.00,meteobridge,2013-08-06 23:38:00,
2013-08-06 19:44:00,71.6,53.1,30.08,East,90,0.7,0.7,52,0.00,,,0.00,meteobridge,2013-08-06 23:44:00,
2013-08-06 19:49:00,71.2,53.8,30.08,SW,225,0.7,0.7,54,0.00,,,0.00,meteobridge,2013-08-06 23:49:00,
2013-08-06 19:55:00,70.7,53.2,30.08,East,90,0.0,0.7,54,0.00,,,0.00,meteobridge,2013-08-06 23:55:00,
2013-08-06 20:01:00,70.5,53.1,30.08,NE,45,0.0,5.4,54,0.00,,,0.00,meteobridge,2013-08-07 00:01:00,
2013-08-06 20:06:00,72.5,54.3,30.08,South,180,2.2,2.2,53,0.00,,,0.00,meteobridge,2013-08-07 00:06:00,
2013-08-06 20:12:00,72.1,54.1,30.08,West,270,1.6,2.2,53,0.00,,,0.00,meteobridge,2013-08-07 00:12:00,
2013-08-06 20:18:00,72.3,54.1,30.08,South,180,1.6,2.2,53,0.00,,,0.00,meteobridge,2013-08-07 00:18:00,
2013-08-06 20:23:00,72.0,54.0,30.08,West,270,0.7,2.2,53,0.00,,,0.00,meteobridge,2013-08-07 00:23:00,
2013-08-06 20:29:00,71.6,53.6,30.09,SW,225,1.6,1.6,53,0.00,,,0.00,meteobridge,2013-08-07 00:29:00,
2013-08-06 20:34:00,70.7,53.2,30.08,East,90,0.0,2.2,54,0.00,,,0.00,meteobridge,2013-08-07 00:34:00,
2013-08-06 20:40:00,68.7,52.0,30.09,South,180,0.0,2.2,55,0.00,,,0.00,meteobridge,2013-08-07 00:40:00,
2013-08-06 20:46:00,68.5,52.2,30.08,South,180,3.1,3.1,56,0.00,,,0.00,meteobridge,2013-08-07 00:46:00,
2013-08-06 20:51:00,70.0,53.1,30.08,South,180,0.0,1.6,55,0.00,,,0.00,meteobridge,2013-08-07 00:51:00,
2013-08-06 20:57:00,69.3,52.9,30.08,SW,225,0.7,1.6,56,0.00,,,0.00,meteobridge,2013-08-07 00:57:00,
2013-08-06 21:03:00,69.8,52.9,30.08,West,270,3.1,3.1,55,0.00,,,0.00,meteobridge,2013-08-07 01:03:00,
2013-08-06 21:08:00,70.3,53.4,30.08,South,180,3.1,3.1,55,0.00,,,0.00,meteobridge,2013-08-07 01:08:00,
2013-08-06 21:14:00,69.8,52.9,30.08,South,180,0.7,2.2,55,0.00,,,0.00,meteobridge,2013-08-07 01:14:00,
2013-08-06 21:20:00,67.1,51.4,30.08,East,90,0.0,0.7,57,0.00,,,0.00,meteobridge,2013-08-07 01:20:00,
2013-08-06 21:25:00,66.6,51.3,30.08,SE,135,3.1,3.1,58,0.00,,,0.00,meteobridge,2013-08-07 01:25:00,
2013-08-06 21:31:00,66.4,51.6,30.09,SW,225,0.0,0.0,59,0.00,,,0.00,meteobridge,2013-08-07 01:31:00,
2013-08-06 21:36:00,66.2,51.4,30.09,South,180,0.0,0.0,59,0.00,,,0.00,meteobridge,2013-08-07 01:36:00,
2013-08-06 21:42:00,65.5,51.3,30.09,South,180,0.0,0.0,60,0.00,,,0.00,meteobridge,2013-08-07 01:42:00,
2013-08-06 21:48:00,65.1,51.3,30.09,West,270,0.0,1.6,61,0.00,,,0.00,meteobridge,2013-08-07 01:48:00,
2013-08-06 21:53:00,65.8,52.0,30.09,South,180,1.6,2.2,61,0.00,,,0.00,meteobridge,2013-08-07 01:53:00,
2013-08-06 21:59:00,66.0,51.8,30.09,North,0,0.0,0.0,60,0.00,,,0.00,meteobridge,2013-08-07 01:59:00,
2013-08-06 22:05:00,66.2,51.4,30.09,South,180,0.0,1.6,59,0.00,,,0.00,meteobridge,2013-08-07 02:05:00,
2013-08-06 22:10:00,66.7,52.0,30.09,South,180,0.0,0.7,59,0.00,,,0.00,meteobridge,2013-08-07 02:10:00,
2013-08-06 22:16:00,65.3,51.1,30.09,South,180,0.0,0.0,60,0.00,,,0.00,meteobridge,2013-08-07 02:16:00,
2013-08-06 22:22:00,65.1,51.3,30.09,South,180,0.0,0.0,61,0.00,,,0.00,meteobridge,2013-08-07 02:22:00,
2013-08-06 22:27:00,64.4,50.7,30.09,South,180,0.0,0.0,61,0.00,,,0.00,meteobridge,2013-08-07 02:27:00,
2013-08-06 22:33:00,64.0,50.7,30.09,South,180,0.0,0.0,62,0.00,,,0.00,meteobridge,2013-08-07 02:33:00,
2013-08-06 22:39:00,63.9,50.5,30.09,West,270,0.0,0.0,62,0.00,,,0.00,meteobridge,2013-08-07 02:39:00,
2013-08-06 22:44:00,63.1,50.4,30.09,West,270,0.0,0.0,63,0.00,,,0.00,meteobridge,2013-08-07 02:44:00,
2013-08-06 22:50:00,63.1,50.4,30.09,West,270,0.0,0.0,63,0.00,,,0.00,meteobridge,2013-08-07 02:50:00,
2013-08-06 22:51:00,63.1,50.4,30.09,SW,225,0.0,0.0,63,0.00,,,0.00,meteobridge,2013-08-07 02:51:00,
2013-08-06 22:57:00,65.1,51.8,30.09,West,270,0.0,0.0,62,0.00,,,0.00,meteobridge,2013-08-07 02:57:00,
2013-08-06 23:02:00,63.7,50.4,30.09,West,270,0.0,0.0,62,0.00,,,0.00,meteobridge,2013-08-07 03:02:00,
2013-08-06 23:08:00,62.8,49.6,30.09,West,270,0.0,0.0,62,0.00,,,0.00,meteobridge,2013-08-07 03:08:00,
2013-08-06 23:14:00,62.8,50.0,30.09,West,270,0.0,0.0,63,0.00,,,0.00,meteobridge,2013-08-07 03:14:00,
2013-08-06 23:19:00,62.8,50.0,30.09,West,270,0.0,0.0,63,0.00,,,0.00,meteobridge,2013-08-07 03:19:00,
2013-08-06 23:25:00,62.1,50.2,30.09,West,270,0.0,0.0,65,0.00,,,0.00,meteobridge,2013-08-07 03:25:00,
2013-08-06 23:31:00,62.1,50.2,30.10,West,270,0.0,0.0,65,0.00,,,0.00,meteobridge,2013-08-07 03:31:00,
2013-08-06 23:36:00,62.1,50.5,30.09,West,270,0.0,0.0,66,0.00,,,0.00,meteobridge,2013-08-07 03:36:00,
2013-08-06 23:42:00,61.5,50.0,30.09,West,270,0.0,0.0,66,0.00,,,0.00,meteobridge,2013-08-07 03:42:00,
2013-08-06 23:48:00,62.6,50.7,30.09,West,270,0.0,0.0,65,0.00,,,0.00,meteobridge,2013-08-07 03:48:00,
2013-08-06 23:53:00,62.1,50.2,30.09,West,270,0.0,0.0,65,0.00,,,0.00,meteobridge,2013-08-07 03:53:00,
2013-08-06 23:59:00,61.0,49.1,30.10,West,270,0.0,0.0,65,0.00,,,0.00,meteobridge,2013-08-07 03:59:00,